Meteo Giornale » Osservazioni meteo Italia » Monte Cimone

ore: 03:55 - Osservazioni Meteo Monte Cimone
Lat. 44° 12' N Lon. 10° 42' E Alt. 2165 metri s.l.m.

sereno Europe/Rome

6 °C

Sereno

Temp. 24 Ore

2 °C

9 °C

Nord

13 Km/h

Dew point 0 °C

Umidità 65 %

Visibilità  0 Km

Il sole sorge alle ore 07:12

Il sole tramonta alle ore 19:01

Data e Ora Cielo e Fenomeni T °C DP °C Um. % Pres. hPa Vis. km Vento km/h
Oggi h: 03:55 sereno Sereno 6 0 65 1021 0 N 13
Oggi h: 02:55 sereno Sereno 6 0 65 1022 0 N/NO 11.1
Oggi h: 01:55 sereno Sereno 6 1 70 1022 0 N/NO 9.3
Oggi h: 00:55 sereno Sereno 5 2 80 1022 0 N/NE 7.4
Ieri h: 22:55 sereno Sereno 6 0 65 1022 0 O/NO 9.3
Ieri h: 21:55 sereno Sereno 7 1 65 1022 0 O 14.8
Ieri h: 20:55 sereno Sereno 7 -0 60 1022 0 O/SO 13
Ieri h: 19:55 sereno Sereno 6 -0 65 1022 0 O/SO 16.7
Ieri h: 18:55 sereno Sereno 7 0 60 1022 0 O/NO 25.9
Ieri h: 17:55 sereno Sereno 6 5 93 1021 0 O/SO 11.1
Ieri h: 16:55 sereno Sereno 7 5 87 1021 0 SO 13
Ieri h: 15:55 sereno Sereno 7 5 87 1022 0 O 13
Ieri h: 14:55 sereno Sereno 8 4 75 1022 0 N 13
Ieri h: 13:55 sereno Sereno 9 4 70 1022 0 N 7.4
Ieri h: 12:55 sereno Sereno 7 2 70 1022 0 N 7.4
Ieri h: 11:55 sereno Sereno 7 2 70 1022 0 N 5.5
Ieri h: 10:55 sereno Sereno 5 -1 65 1021 0 NO 20.3
Ieri h: 09:55 sereno Sereno 4 -4 55 1021 0 NO 22.2
Ieri h: 08:55 sereno Sereno 3 -4 59 1020 0 O/NO 27.8
Ieri h: 07:55 sereno Sereno 4 -2 64 1019 0 O/NO 38.8
Ieri h: 06:55 sereno Sereno 2 -4 64 1018 0 O/NO 35.2
Ieri h: 05:55 sereno Sereno 2 -2 74 1018 0 O/NO 37
Ieri h: 04:55 sereno Sereno 3 -0 80 1017 0 O/NO 38.8